Time;durP1;ratioP1;P1;durP2;ratioP2;P2;SDS_P1;SDS_P2;PMS_P1;PMS_P2;Temp;Humidity;BMP_temperature;BMP_pressure;BME280_temperature;BME280_humidity;BME280_pressure;Samples;Min_cycle;Max_cycle;Signal;HPM_P1;HPM_P2
2023/10/23 00:01:38;;;;;;;9.18;8.52;;;;;;;;;;5179546;27;20034;-79
2023/10/23 00:04:04;;;;;;;10.10;9.15;;;;;;;;;;5143855;27;20093;-79
2023/10/23 00:06:31;;;;;;;9.55;8.75;;;;;;;;;;5143451;27;20081;-79
2023/10/23 00:08:57;;;;;;;9.52;8.73;;;;;;;;;;5160681;27;20046;-79
2023/10/23 00:11:23;;;;;;;9.73;8.70;;;;;;;;;;5126156;27;20042;-79
2023/10/23 00:13:50;;;;;;;9.52;8.82;;;;;;;;;;5160620;27;20133;-78
2023/10/23 00:16:16;;;;;;;10.57;9.48;;;;;;;;;;5160936;27;20038;-79
2023/10/23 00:18:42;;;;;;;11.15;9.20;;;;;;;;;;5179765;27;20095;-79
2023/10/23 00:21:08;;;;;;;9.68;8.60;;;;;;;;;;5161608;27;20381;-79
2023/10/23 00:23:34;;;;;;;10.32;9.40;;;;;;;;;;5179163;27;20045;-79
2023/10/23 00:26:01;;;;;;;10.10;8.75;;;;;;;;;;5160707;27;20489;-79
2023/10/23 00:28:27;;;;;;;10.77;9.45;;;;;;;;;;5161036;27;20129;-78
2023/10/23 00:30:53;;;;;;;9.73;8.93;;;;;;;;;;5160669;27;20038;-78
2023/10/23 00:33:19;;;;;;;10.77;8.48;;;;;;;;;;5160348;27;20077;-78
2023/10/23 00:35:45;;;;;;;9.30;8.43;;;;;;;;;;5160826;27;20041;-78
2023/10/23 00:38:11;;;;;;;9.68;8.70;;;;;;;;;;5178700;27;20043;-78
2023/10/23 00:40:37;;;;;;;10.00;9.10;;;;;;;;;;5178887;27;20458;-78
2023/10/23 00:43:23;;;;;;;7.85;7.15;;;;;;;;;;5179295;27;20042;-78
2023/10/23 00:45:49;;;;;;;8.52;7.57;;;;;;;;;;5160295;27;20121;-79
2023/10/23 00:48:15;;;;;;;9.52;8.45;;;;;;;;;;5142996;27;20042;-78
2023/10/23 00:50:41;;;;;;;10.05;9.23;;;;;;;;;;5159952;27;20451;-79
2023/10/23 00:53:07;;;;;;;9.93;9.07;;;;;;;;;;5160507;27;20046;-79
2023/10/23 00:55:34;;;;;;;9.23;8.05;;;;;;;;;;5178843;27;20041;-79
2023/10/23 00:58:00;;;;;;;7.70;7.03;;;;;;;;;;5160064;27;20041;-79
2023/10/23 01:00:28;;;;;;;9.27;8.45;;;;;;;;;;5159857;27;20562;-78
2023/10/23 01:02:54;;;;;;;8.18;7.50;;;;;;;;;;5178374;27;20121;-78
2023/10/23 01:05:20;;;;;;;8.18;7.38;;;;;;;;;;5159964;27;20038;-79
2023/10/23 01:07:46;;;;;;;8.23;7.50;;;;;;;;;;5160307;27;20123;-78
2023/10/23 01:10:12;;;;;;;8.30;7.50;;;;;;;;;;5177646;27;20042;-79
2023/10/23 01:12:40;;;;;;;8.63;7.80;;;;;;;;;;5160287;27;20170;-78
2023/10/23 01:15:07;;;;;;;7.90;7.20;;;;;;;;;;5160209;27;20346;-79
2023/10/23 01:17:33;;;;;;;8.48;7.88;;;;;;;;;;5159746;27;20071;-78
2023/10/23 01:19:59;;;;;;;7.32;6.75;;;;;;;;;;5178048;27;20063;-78
2023/10/23 01:22:25;;;;;;;8.48;7.60;;;;;;;;;;5178273;27;20396;-78
2023/10/23 01:24:52;;;;;;;7.95;7.45;;;;;;;;;;5177724;27;20129;-79
2023/10/23 01:27:18;;;;;;;7.30;6.55;;;;;;;;;;5142695;27;20453;-78
2023/10/23 01:29:44;;;;;;;7.05;6.53;;;;;;;;;;5177821;27;20038;-79
2023/10/23 01:32:10;;;;;;;8.63;7.93;;;;;;;;;;5177739;27;20045;-78
2023/10/23 01:34:36;;;;;;;8.27;7.57;;;;;;;;;;5159764;27;20050;-79
2023/10/23 01:37:03;;;;;;;10.13;7.68;;;;;;;;;;5159530;27;20082;-79
2023/10/23 01:39:29;;;;;;;7.70;7.15;;;;;;;;;;5159240;27;20045;-79
2023/10/23 01:41:55;;;;;;;9.00;8.20;;;;;;;;;;5141912;27;20540;-78
2023/10/23 01:44:21;;;;;;;7.88;7.18;;;;;;;;;;5178240;27;20086;-78
2023/10/23 01:46:47;;;;;;;8.27;7.47;;;;;;;;;;5178000;27;20121;-78
2023/10/23 01:49:13;;;;;;;9.13;7.25;;;;;;;;;;5159706;27;20038;-79
2023/10/23 01:51:39;;;;;;;8.77;7.97;;;;;;;;;;5177111;27;20057;-79
2023/10/23 01:54:05;;;;;;;7.88;7.13;;;;;;;;;;5177485;27;20051;-78
2023/10/23 01:56:32;;;;;;;9.05;8.18;;;;;;;;;;5159017;27;20476;-79
2023/10/23 01:58:58;;;;;;;7.93;7.32;;;;;;;;;;5158619;27;20470;-78
2023/10/23 02:01:25;;;;;;;8.20;7.53;;;;;;;;;;5177443;27;20457;-79
2023/10/23 02:03:51;;;;;;;7.93;7.35;;;;;;;;;;5158988;27;20045;-78
2023/10/23 02:06:17;;;;;;;7.43;6.80;;;;;;;;;;5159560;27;20060;-78
2023/10/23 02:08:44;;;;;;;7.82;7.18;;;;;;;;;;5158381;27;20042;-79
2023/10/23 02:11:10;;;;;;;6.60;6.18;;;;;;;;;;5158530;27;20045;-78
2023/10/23 02:13:36;;;;;;;7.70;7.15;;;;;;;;;;5158544;27;20045;-79
2023/10/23 02:16:02;;;;;;;8.23;7.55;;;;;;;;;;5158724;27;20046;-79
2023/10/23 02:18:28;;;;;;;7.22;6.72;;;;;;;;;;5158923;27;20034;-78
2023/10/23 02:20:54;;;;;;;7.80;7.30;;;;;;;;;;5176509;27;20038;-78
2023/10/23 02:23:20;;;;;;;7.35;6.70;;;;;;;;;;5158222;27;20042;-78
2023/10/23 02:25:47;;;;;;;7.53;6.93;;;;;;;;;;5141096;27;20046;-78
2023/10/23 02:28:14;;;;;;;7.82;7.22;;;;;;;;;;5158338;27;20046;-78
2023/10/23 02:30:40;;;;;;;7.38;6.63;;;;;;;;;;5176722;27;20094;-78
2023/10/23 02:33:06;;;;;;;7.60;6.90;;;;;;;;;;5157932;27;20481;-78
2023/10/23 02:35:36;;;;;;;7.07;6.55;;;;;;;;;;5158905;27;20038;-78
2023/10/23 02:38:02;;;;;;;7.45;6.95;;;;;;;;;;5158265;27;20042;-78
2023/10/23 02:40:29;;;;;;;8.23;7.47;;;;;;;;;;5158477;27;20049;-78
2023/10/23 02:42:55;;;;;;;8.18;7.20;;;;;;;;;;5158969;27;20044;-78
2023/10/23 02:45:22;;;;;;;8.57;7.32;;;;;;;;;;5176389;27;20369;-78
2023/10/23 02:47:48;;;;;;;7.55;6.82;;;;;;;;;;5158907;27;20420;-78
2023/10/23 02:50:14;;;;;;;9.85;7.97;;;;;;;;;;5176483;27;20078;-78
2023/10/23 02:52:40;;;;;;;8.15;7.53;;;;;;;;;;5140592;27;20050;-78
2023/10/23 02:55:06;;;;;;;8.07;7.43;;;;;;;;;;5176264;27;20516;-78
2023/10/23 02:57:32;;;;;;;8.93;8.13;;;;;;;;;;5157672;27;20042;-78
2023/10/23 02:59:59;;;;;;;8.02;7.38;;;;;;;;;;5176315;27;20060;-79
2023/10/23 03:02:25;;;;;;;8.70;7.68;;;;;;;;;;5140534;27;20082;-78
2023/10/23 03:04:51;;;;;;;8.43;7.57;;;;;;;;;;5158185;27;20042;-78
2023/10/23 03:07:17;;;;;;;10.38;9.27;;;;;;;;;;5158287;27;20042;-79
2023/10/23 03:09:44;;;;;;;9.57;8.65;;;;;;;;;;5176490;27;20042;-78
2023/10/23 03:12:10;;;;;;;10.85;9.82;;;;;;;;;;5176027;27;20037;-78
2023/10/23 03:14:36;;;;;;;9.50;8.30;;;;;;;;;;5123221;27;20084;-78
2023/10/23 03:17:02;;;;;;;9.07;8.27;;;;;;;;;;5158139;27;20053;-78
2023/10/23 03:19:28;;;;;;;9.48;8.45;;;;;;;;;;5140343;27;20046;-78
2023/10/23 03:21:55;;;;;;;9.82;9.02;;;;;;;;;;5157478;27;20041;-78
2023/10/23 03:24:22;;;;;;;10.15;9.15;;;;;;;;;;5157732;27;20381;-78
2023/10/23 03:26:48;;;;;;;11.70;10.60;;;;;;;;;;5140774;27;20038;-78
2023/10/23 03:29:14;;;;;;;10.20;9.27;;;;;;;;;;5157712;27;20049;-78
2023/10/23 03:31:40;;;;;;;10.63;9.50;;;;;;;;;;5157354;27;20037;-78
2023/10/23 03:34:07;;;;;;;12.73;11.43;;;;;;;;;;5180214;27;20046;-78
2023/10/23 03:36:33;;;;;;;11.77;10.90;;;;;;;;;;5162573;27;20369;-77
2023/10/23 03:38:59;;;;;;;14.02;10.52;;;;;;;;;;5161389;27;20090;-78
2023/10/23 03:41:26;;;;;;;13.07;11.73;;;;;;;;;;5161355;27;20091;-78
2023/10/23 03:43:52;;;;;;;12.05;10.98;;;;;;;;;;5179801;27;20042;-78
2023/10/23 03:46:18;;;;;;;15.02;12.02;;;;;;;;;;5161018;27;20068;-78
2023/10/23 03:48:44;;;;;;;17.75;14.73;;;;;;;;;;5161412;27;20591;-78
2023/10/23 03:51:10;;;;;;;13.02;11.73;;;;;;;;;;5161202;27;20047;-78
2023/10/23 03:53:36;;;;;;;12.65;11.43;;;;;;;;;;5179765;27;20042;-78
2023/10/23 03:56:08;;;;;;;14.43;13.13;;;;;;;;;;5161484;27;20042;-78
2023/10/23 03:58:34;;;;;;;13.27;12.13;;;;;;;;;;5161309;27;20041;-78
2023/10/23 04:01:00;;;;;;;14.93;13.57;;;;;;;;;;5161316;27;20030;-78
2023/10/23 04:03:27;;;;;;;16.40;14.68;;;;;;;;;;5160894;27;20450;-79
2023/10/23 04:05:53;;;;;;;17.70;15.88;;;;;;;;;;5160990;27;20041;-78
2023/10/23 04:08:19;;;;;;;17.35;14.07;;;;;;;;;;5161075;27;20042;-79
2023/10/23 04:10:46;;;;;;;15.38;13.90;;;;;;;;;;5179574;27;20042;-78
2023/10/23 04:13:12;;;;;;;19.25;17.15;;;;;;;;;;5161733;27;20095;-78
2023/10/23 04:15:38;;;;;;;17.30;14.25;;;;;;;;;;5160409;27;20405;-78
2023/10/23 04:18:04;;;;;;;14.48;13.05;;;;;;;;;;5160621;27;20068;-78
2023/10/23 04:20:30;;;;;;;15.05;13.55;;;;;;;;;;5160604;27;20087;-78
2023/10/23 04:22:56;;;;;;;14.95;13.40;;;;;;;;;;5160952;27;20042;-79
2023/10/23 04:25:23;;;;;;;15.85;14.07;;;;;;;;;;5161547;27;20053;-78
2023/10/23 04:27:49;;;;;;;14.52;12.73;;;;;;;;;;5179580;27;20049;-78
2023/10/23 04:30:16;;;;;;;14.32;12.82;;;;;;;;;;5160741;27;20050;-78
2023/10/23 04:32:42;;;;;;;15.25;13.43;;;;;;;;;;5179880;27;20081;-79
2023/10/23 04:35:08;;;;;;;13.30;11.65;;;;;;;;;;5178837;27;20042;-79
2023/10/23 04:37:34;;;;;;;15.18;13.65;;;;;;;;;;5178864;27;20042;-78
2023/10/23 04:40:00;;;;;;;16.35;14.07;;;;;;;;;;5160688;27;20042;-78
2023/10/23 04:42:26;;;;;;;14.50;13.20;;;;;;;;;;5178671;27;20049;-78
2023/10/23 04:44:52;;;;;;;13.57;12.40;;;;;;;;;;5159224;27;20386;-78
2023/10/23 04:47:18;;;;;;;14.48;13.18;;;;;;;;;;5161066;27;20077;-78
2023/10/23 04:49:47;;;;;;;14.60;13.07;;;;;;;;;;5160068;27;20125;-78
2023/10/23 04:52:16;;;;;;;11.15;10.15;;;;;;;;;;5160081;27;20125;-78
2023/10/23 04:54:42;;;;;;;12.73;11.52;;;;;;;;;;5161071;27;20109;-78
2023/10/23 04:57:09;;;;;;;13.70;12.40;;;;;;;;;;5159936;27;20043;-78
2023/10/23 04:59:35;;;;;;;12.40;11.32;;;;;;;;;;5160040;27;20046;-78
2023/10/23 05:02:02;;;;;;;12.10;11.00;;;;;;;;;;5160119;27;20087;-79
2023/10/23 05:04:31;;;;;;;10.98;10.00;;;;;;;;;;5178448;27;20062;-78
2023/10/23 05:06:58;;;;;;;10.35;9.48;;;;;;;;;;5178415;27;20043;-79
2023/10/23 05:09:24;;;;;;;10.60;9.35;;;;;;;;;;5160173;27;20057;-78
2023/10/23 05:11:50;;;;;;;10.65;9.75;;;;;;;;;;5160346;27;20038;-78
2023/10/23 05:14:16;;;;;;;10.93;9.10;;;;;;;;;;5159694;27;20038;-78
2023/10/23 05:16:42;;;;;;;10.90;9.90;;;;;;;;;;5178040;27;20046;-78
2023/10/23 05:19:09;;;;;;;13.93;12.63;;;;;;;;;;5177943;27;20045;-78
2023/10/23 05:21:35;;;;;;;14.48;11.75;;;;;;;;;;5159897;27;20053;-78
2023/10/23 05:24:01;;;;;;;15.60;13.88;;;;;;;;;;5159518;27;20044;-78
2023/10/23 05:26:27;;;;;;;14.38;12.15;;;;;;;;;;5142615;27;20046;-78
2023/10/23 05:28:53;;;;;;;13.63;12.43;;;;;;;;;;5159427;27;20048;-78
2023/10/23 05:31:19;;;;;;;14.70;13.25;;;;;;;;;;5159505;27;20069;-78
2023/10/23 05:33:45;;;;;;;15.70;13.63;;;;;;;;;;5159524;27;20389;-78
2023/10/23 05:36:11;;;;;;;12.75;11.40;;;;;;;;;;5159195;27;20038;-78
2023/10/23 05:38:38;;;;;;;12.85;11.68;;;;;;;;;;5159388;27;20046;-78
2023/10/23 05:41:08;;;;;;;15.00;13.50;;;;;;;;;;5177932;27;20118;-78
2023/10/23 05:43:34;;;;;;;16.10;14.52;;;;;;;;;;5159421;27;20500;-78
2023/10/23 05:46:02;;;;;;;17.00;15.40;;;;;;;;;;5178273;27;20106;-78
2023/10/23 05:48:28;;;;;;;16.27;14.68;;;;;;;;;;5159252;27;20042;-78
2023/10/23 05:51:02;;;;;;;17.35;15.40;;;;;;;;;;5177607;27;20433;-78
2023/10/23 05:53:28;;;;;;;17.52;15.77;;;;;;;;;;5177603;27;20046;-79
2023/10/23 05:55:54;;;;;;;17.30;15.45;;;;;;;;;;5140978;27;20042;-79
2023/10/23 05:58:21;;;;;;;18.27;15.43;;;;;;;;;;5159182;27;20046;-78
2023/10/23 06:00:47;;;;;;;17.90;16.10;;;;;;;;;;5177443;27;20517;-78
2023/10/23 06:03:13;;;;;;;18.55;16.63;;;;;;;;;;5158834;27;20050;-78
2023/10/23 06:05:40;;;;;;;17.02;15.43;;;;;;;;;;5141830;27;20042;-77
2023/10/23 06:08:06;;;;;;;19.63;17.63;;;;;;;;;;5158688;27;20046;-78
2023/10/23 06:10:33;;;;;;;17.60;15.88;;;;;;;;;;5158547;27;20038;-78
2023/10/23 06:12:59;;;;;;;27.27;18.88;;;;;;;;;;5141248;27;20051;-78
2023/10/23 06:15:25;;;;;;;18.10;16.27;;;;;;;;;;5158225;27;20042;-78
2023/10/23 06:17:51;;;;;;;15.30;13.88;;;;;;;;;;5158252;27;20050;-78
2023/10/23 06:20:17;;;;;;;16.35;14.68;;;;;;;;;;5158242;27;20071;-78
2023/10/23 06:22:43;;;;;;;16.63;15.07;;;;;;;;;;5158356;27;20102;-78
2023/10/23 06:25:09;;;;;;;15.20;13.77;;;;;;;;;;5177537;27;20118;-78
2023/10/23 06:27:35;;;;;;;15.65;14.05;;;;;;;;;;5158255;27;20045;-78
2023/10/23 06:30:02;;;;;;;17.42;15.48;;;;;;;;;;5158285;27;20078;-77
2023/10/23 06:32:28;;;;;;;17.40;15.80;;;;;;;;;;5158002;27;20081;-78
2023/10/23 06:34:54;;;;;;;14.05;12.75;;;;;;;;;;5158265;27;20470;-78
2023/10/23 06:37:20;;;;;;;14.25;12.80;;;;;;;;;;5158430;27;20466;-78
2023/10/23 06:39:47;;;;;;;15.63;14.02;;;;;;;;;;5176516;27;20485;-77
2023/10/23 06:42:13;;;;;;;15.32;13.77;;;;;;;;;;5140761;27;20038;-78
2023/10/23 06:44:39;;;;;;;15.20;12.68;;;;;;;;;;5176430;27;20038;-78
2023/10/23 06:47:05;;;;;;;13.63;12.43;;;;;;;;;;5158175;27;20041;-78
2023/10/23 06:49:31;;;;;;;15.18;13.85;;;;;;;;;;5157948;27;20134;-78
2023/10/23 06:51:57;;;;;;;15.18;13.77;;;;;;;;;;5140389;27;20046;-78
2023/10/23 06:54:24;;;;;;;17.23;15.50;;;;;;;;;;5176292;27;20046;-78
2023/10/23 06:56:50;;;;;;;15.27;13.88;;;;;;;;;;5140889;27;20085;-78
2023/10/23 06:59:16;;;;;;;14.82;13.35;;;;;;;;;;5158061;27;20050;-78
2023/10/23 07:01:42;;;;;;;13.27;12.18;;;;;;;;;;5176431;27;20042;-78
2023/10/23 07:04:08;;;;;;;20.27;17.42;;;;;;;;;;5140561;27;20095;-78
2023/10/23 07:06:34;;;;;;;17.60;15.98;;;;;;;;;;5157347;27;20046;-78
2023/10/23 07:09:00;;;;;;;16.10;14.40;;;;;;;;;;5157436;27;20106;-78
2023/10/23 07:11:26;;;;;;;15.98;14.45;;;;;;;;;;5157862;27;20114;-80
2023/10/23 07:13:52;;;;;;;17.10;15.45;;;;;;;;;;5176610;27;20042;-81
2023/10/23 07:16:19;;;;;;;16.70;15.07;;;;;;;;;;5157806;27;20054;-78
2023/10/23 07:18:45;;;;;;;21.27;19.17;;;;;;;;;;5157643;27;20046;-78
2023/10/23 07:21:11;;;;;;;18.98;17.08;;;;;;;;;;5158433;27;20047;-78
2023/10/23 07:23:37;;;;;;;17.65;15.95;;;;;;;;;;5158474;27;20042;-78
2023/10/23 07:26:07;;;;;;;18.92;17.00;;;;;;;;;;5157909;27;20045;-78
2023/10/23 07:28:34;;;;;;;19.33;16.38;;;;;;;;;;5157909;27;20042;-78
2023/10/23 07:31:02;;;;;;;17.98;16.17;;;;;;;;;;5157132;27;20478;-78
2023/10/23 07:33:29;;;;;;;20.02;18.13;;;;;;;;;;5157583;27;20046;-78
2023/10/23 07:36:05;;;;;;;20.23;17.92;;;;;;;;;;5157808;27;20085;-78
2023/10/23 07:38:31;;;;;;;20.35;18.25;;;;;;;;;;5158361;27;20046;-78
2023/10/23 07:40:57;;;;;;;19.27;17.27;;;;;;;;;;5157449;27;20398;-78
2023/10/23 07:43:27;;;;;;;19.33;17.52;;;;;;;;;;5157565;27;20069;-78
2023/10/23 07:45:53;;;;;;;19.73;17.73;;;;;;;;;;5176390;27;20475;-78
2023/10/23 07:48:20;;;;;;;20.17;18.25;;;;;;;;;;5140593;27;20042;-78
2023/10/23 07:50:46;;;;;;;19.00;16.98;;;;;;;;;;5157316;27;20103;-77
2023/10/23 07:53:12;;;;;;;20.15;17.35;;;;;;;;;;5157509;27;20075;-77
2023/10/23 07:55:38;;;;;;;42.15;27.00;;;;;;;;;;5176010;27;20042;-78
2023/10/23 07:58:04;;;;;;;22.55;20.15;;;;;;;;;;5140111;27;20065;-78
2023/10/23 08:00:30;;;;;;;22.15;19.88;;;;;;;;;;5157530;27;20053;-78
2023/10/23 08:02:56;;;;;;;23.45;20.90;;;;;;;;;;5175621;27;20045;-77
2023/10/23 08:05:23;;;;;;;23.52;21.08;;;;;;;;;;5157071;27;20046;-77
2023/10/23 08:07:49;;;;;;;22.48;20.05;;;;;;;;;;5175634;27;20050;-77
2023/10/23 08:10:15;;;;;;;36.92;23.15;;;;;;;;;;5157472;27;20038;-78
2023/10/23 08:12:41;;;;;;;22.10;19.77;;;;;;;;;;5156895;27;20049;-77
2023/10/23 08:15:08;;;;;;;21.42;19.13;;;;;;;;;;5175501;27;20081;-78
2023/10/23 08:17:34;;;;;;;22.20;19.48;;;;;;;;;;5122921;27;20046;-78
2023/10/23 08:20:00;;;;;;;23.60;19.77;;;;;;;;;;5177586;27;20048;-78
2023/10/23 08:22:26;;;;;;;20.88;18.50;;;;;;;;;;5160873;27;20054;-78
2023/10/23 08:24:52;;;;;;;20.90;17.65;;;;;;;;;;5161104;27;20045;-78
2023/10/23 08:27:18;;;;;;;23.67;18.38;;;;;;;;;;5161605;27;20046;-77
2023/10/23 08:29:44;;;;;;;20.08;16.35;;;;;;;;;;5143647;27;20043;-77
2023/10/23 08:32:12;;;;;;;19.25;17.40;;;;;;;;;;5161072;27;20045;-77
2023/10/23 08:34:38;;;;;;;18.48;16.48;;;;;;;;;;5160534;27;20474;-78
2023/10/23 08:37:04;;;;;;;21.73;19.42;;;;;;;;;;5160575;27;20045;-78
2023/10/23 08:39:30;;;;;;;21.60;19.35;;;;;;;;;;5178920;27;20046;-78
2023/10/23 08:41:57;;;;;;;17.20;15.60;;;;;;;;;;5160453;27;20485;-79
2023/10/23 08:44:23;;;;;;;18.40;16.60;;;;;;;;;;5160313;27;20053;-78
2023/10/23 08:46:50;;;;;;;15.63;14.15;;;;;;;;;;5178727;27;20473;-78
2023/10/23 08:49:16;;;;;;;26.55;19.85;;;;;;;;;;5160321;27;20042;-78
2023/10/23 08:51:43;;;;;;;21.05;18.80;;;;;;;;;;5159538;27;20050;-78
2023/10/23 08:54:13;;;;;;;45.58;26.48;;;;;;;;;;5160447;27;20053;-78
2023/10/23 08:56:42;;;;;;;34.88;26.73;;;;;;;;;;5179069;27;20042;-78
2023/10/23 08:59:15;;;;;;;46.58;32.53;;;;;;;;;;5160869;27;20046;-78
2023/10/23 09:01:41;;;;;;;37.53;29.35;;;;;;;;;;5160808;27;20049;-78
2023/10/23 09:04:10;;;;;;;42.33;34.00;;;;;;;;;;5160216;27;20129;-78
2023/10/23 09:06:36;;;;;;;50.28;37.67;;;;;;;;;;5142663;27;20137;-78
2023/10/23 09:09:03;;;;;;;53.05;40.28;;;;;;;;;;5159903;27;20470;-78
2023/10/23 09:11:39;;;;;;;56.67;41.50;;;;;;;;;;5159744;27;20042;-78
2023/10/23 09:14:05;;;;;;;50.45;40.53;;;;;;;;;;5159511;27;20498;-79
2023/10/23 09:16:31;;;;;;;50.03;40.40;;;;;;;;;;5178109;27;20097;-79
2023/10/23 09:18:57;;;;;;;50.72;41.55;;;;;;;;;;5142627;27;20496;-79
2023/10/23 09:21:23;;;;;;;47.60;40.30;;;;;;;;;;5159648;27;20395;-78
2023/10/23 09:23:51;;;;;;;43.10;37.00;;;;;;;;;;5178033;27;20050;-79
2023/10/23 09:26:18;;;;;;;40.25;34.75;;;;;;;;;;5160315;27;20385;-79
2023/10/23 09:28:46;;;;;;;32.40;28.88;;;;;;;;;;5160098;27;20078;-79
2023/10/23 09:31:12;;;;;;;26.42;23.60;;;;;;;;;;5158471;27;20046;-79
2023/10/23 09:33:38;;;;;;;30.35;25.42;;;;;;;;;;5177739;27;20047;-79
2023/10/23 09:36:08;;;;;;;30.85;25.98;;;;;;;;;;5159135;27;20050;-79
2023/10/23 09:38:35;;;;;;;27.88;24.40;;;;;;;;;;5158716;27;20485;-80
2023/10/23 09:41:01;;;;;;;32.88;27.35;;;;;;;;;;5143033;27;20050;-80
2023/10/23 09:43:27;;;;;;;33.90;29.33;;;;;;;;;;5177774;27;20082;-79
2023/10/23 09:45:53;;;;;;;40.97;32.17;;;;;;;;;;5124891;27;20046;-79
2023/10/23 09:48:19;;;;;;;35.50;30.52;;;;;;;;;;5159559;27;20092;-79
2023/10/23 09:50:48;;;;;;;34.72;29.98;;;;;;;;;;5177360;27;20434;-78
2023/10/23 09:53:16;;;;;;;42.25;32.38;;;;;;;;;;5159617;27;20046;-79
2023/10/23 09:55:46;;;;;;;40.17;32.90;;;;;;;;;;5177419;27;20052;-79
2023/10/23 09:58:16;;;;;;;40.55;33.63;;;;;;;;;;5159233;27;20046;-79
2023/10/23 10:00:48;;;;;;;40.45;33.08;;;;;;;;;;5159690;27;20106;-78
2023/10/23 10:03:18;;;;;;;43.65;35.45;;;;;;;;;;5159148;27;20054;-79
2023/10/23 10:06:00;;;;;;;43.67;34.85;;;;;;;;;;5159303;27;20467;-79
2023/10/23 10:08:27;;;;;;;49.08;37.53;;;;;;;;;;5158907;27;20415;-79
2023/10/23 10:10:55;;;;;;;40.55;34.28;;;;;;;;;;5177810;27;20073;-78
2023/10/23 10:13:21;;;;;;;43.90;36.78;;;;;;;;;;5177380;27;20077;-79
2023/10/23 10:15:47;;;;;;;42.00;36.38;;;;;;;;;;5158732;27;20106;-79
2023/10/23 10:18:16;;;;;;;46.05;37.20;;;;;;;;;;5177931;27;20042;-79
2023/10/23 10:20:46;;;;;;;41.95;36.88;;;;;;;;;;5141649;27;20038;-79
2023/10/23 10:23:13;;;;;;;40.33;36.00;;;;;;;;;;5158743;27;20106;-78
2023/10/23 10:25:40;;;;;;;37.00;33.22;;;;;;;;;;5176883;27;20074;-79
2023/10/23 10:28:07;;;;;;;38.60;34.42;;;;;;;;;;5158964;27;20041;-79
2023/10/23 10:30:50;;;;;;;39.40;35.13;;;;;;;;;;5158473;27;20532;-79
2023/10/23 10:33:23;;;;;;;41.40;36.33;;;;;;;;;;5158150;27;20041;-79
2023/10/23 10:36:10;;;;;;;37.65;33.40;;;;;;;;;;5158160;27;20040;-79
2023/10/23 10:38:36;;;;;;;36.17;32.42;;;;;;;;;;5158258;27;20049;-79
2023/10/23 10:41:06;;;;;;;39.22;35.05;;;;;;;;;;5158107;27;20105;-80
2023/10/23 10:43:37;;;;;;;38.63;33.10;;;;;;;;;;5157229;27;20042;-78
2023/10/23 10:46:22;;;;;;;38.75;34.65;;;;;;;;;;5176504;27;20057;-79
2023/10/23 10:48:54;;;;;;;37.35;33.72;;;;;;;;;;5159165;27;20108;-79
2023/10/23 10:51:21;;;;;;;33.28;29.98;;;;;;;;;;5176412;27;20113;-78
2023/10/23 10:53:48;;;;;;;29.73;26.83;;;;;;;;;;5157417;27;20481;-79
2023/10/23 10:56:14;;;;;;;27.98;25.30;;;;;;;;;;5158027;27;20390;-79
2023/10/23 10:58:43;;;;;;;27.50;24.63;;;;;;;;;;5177016;27;20109;-79
2023/10/23 11:01:09;;;;;;;24.73;21.52;;;;;;;;;;5140771;27;20054;-79
2023/10/23 11:03:36;;;;;;;24.55;22.17;;;;;;;;;;5157610;27;20042;-79
2023/10/23 11:06:03;;;;;;;26.60;24.00;;;;;;;;;;5157814;27;20038;-79
2023/10/23 11:08:29;;;;;;;25.55;23.00;;;;;;;;;;5157699;27;20042;-80
2023/10/23 11:11:02;;;;;;;24.30;22.10;;;;;;;;;;5157599;27;20102;-79
2023/10/23 11:13:28;;;;;;;25.10;22.58;;;;;;;;;;5140411;27;20467;-79
2023/10/23 11:15:57;;;;;;;25.80;23.30;;;;;;;;;;5157620;27;20046;-79
2023/10/23 11:18:23;;;;;;;27.13;24.30;;;;;;;;;;5176000;27;20038;-80
2023/10/23 11:20:49;;;;;;;25.60;22.90;;;;;;;;;;5140470;27;20450;-78
2023/10/23 11:23:17;;;;;;;32.25;29.02;;;;;;;;;;5175991;27;20121;-79
2023/10/23 11:25:48;;;;;;;41.67;37.42;;;;;;;;;;5157813;27;20394;-79
2023/10/23 11:28:16;;;;;;;34.45;30.67;;;;;;;;;;5175941;27;20074;-79
2023/10/23 11:30:55;;;;;;;33.63;30.42;;;;;;;;;;5157685;27;20486;-78
2023/10/23 11:33:21;;;;;;;35.47;32.08;;;;;;;;;;5157170;27;20109;-78
2023/10/23 11:35:47;;;;;;;37.05;33.38;;;;;;;;;;5175838;27;20041;-79
2023/10/23 11:38:13;;;;;;;36.63;33.03;;;;;;;;;;5140348;27;20060;-79
2023/10/23 11:40:41;;;;;;;36.88;33.47;;;;;;;;;;5157489;27;20045;-79
2023/10/23 11:43:09;;;;;;;34.00;30.88;;;;;;;;;;5175848;27;20129;-82
2023/10/23 11:45:35;;;;;;;37.60;33.95;;;;;;;;;;5140589;27;20042;-83
2023/10/23 11:48:01;;;;;;;33.58;30.30;;;;;;;;;;5176864;27;20038;-83
2023/10/23 11:50:28;;;;;;;31.85;28.83;;;;;;;;;;5141708;27;20129;-83
2023/10/23 11:52:54;;;;;;;34.75;31.38;;;;;;;;;;5140501;27;20137;-79
2023/10/23 11:55:21;;;;;;;39.20;35.47;;;;;;;;;;5162123;27;20042;-79
2023/10/23 11:57:50;;;;;;;39.28;35.33;;;;;;;;;;5144109;27;20081;-80
2023/10/23 12:00:16;;;;;;;33.83;30.42;;;;;;;;;;5161577;27;20441;-79
2023/10/23 12:02:43;;;;;;;29.33;26.45;;;;;;;;;;5161301;27;20044;-79
2023/10/23 12:05:12;;;;;;;27.38;24.50;;;;;;;;;;5160990;27;20045;-79
2023/10/23 12:07:46;;;;;;;27.05;24.33;;;;;;;;;;5161156;27;20080;-80
2023/10/23 12:10:13;;;;;;;31.90;28.80;;;;;;;;;;5144135;27;20370;-79
2023/10/23 12:12:40;;;;;;;29.42;26.63;;;;;;;;;;5179650;27;20461;-79
2023/10/23 12:15:07;;;;;;;31.27;28.05;;;;;;;;;;5143777;27;20162;-80
2023/10/23 12:17:33;;;;;;;29.65;26.48;;;;;;;;;;5179471;27;20042;-80
2023/10/23 12:19:59;;;;;;;30.10;26.98;;;;;;;;;;5143660;27;20046;-80
2023/10/23 12:22:25;;;;;;;23.13;20.83;;;;;;;;;;5143701;27;20045;-80
2023/10/23 12:24:51;;;;;;;25.23;22.85;;;;;;;;;;5160550;27;20042;-80
2023/10/23 12:27:17;;;;;;;23.58;21.27;;;;;;;;;;5179235;27;20042;-79
2023/10/23 12:29:44;;;;;;;24.15;21.77;;;;;;;;;;5160919;27;20414;-79
2023/10/23 12:32:12;;;;;;;23.80;21.27;;;;;;;;;;5143490;27;20045;-79
2023/10/23 12:34:38;;;;;;;23.38;20.63;;;;;;;;;;5160576;27;20090;-80
2023/10/23 12:37:04;;;;;;;23.33;21.02;;;;;;;;;;5160673;27;20117;-79
2023/10/23 12:39:30;;;;;;;22.45;20.27;;;;;;;;;;5160355;27;20042;-80
2023/10/23 12:41:57;;;;;;;24.08;21.58;;;;;;;;;;5143295;27;20049;-79
2023/10/23 12:44:23;;;;;;;24.48;21.88;;;;;;;;;;5160211;27;20053;-79
2023/10/23 12:46:49;;;;;;;22.75;20.45;;;;;;;;;;5178744;27;20125;-79
2023/10/23 12:49:15;;;;;;;25.50;22.90;;;;;;;;;;5143295;27;20504;-79
2023/10/23 12:51:41;;;;;;;24.30;21.80;;;;;;;;;;5142929;27;20038;-79
2023/10/23 12:54:09;;;;;;;24.58;22.02;;;;;;;;;;5178624;27;20521;-79
2023/10/23 12:56:35;;;;;;;25.05;22.52;;;;;;;;;;5160225;27;20042;-79
2023/10/23 12:59:01;;;;;;;26.60;23.85;;;;;;;;;;5160463;27;20042;-79
2023/10/23 13:01:27;;;;;;;26.45;23.50;;;;;;;;;;5142502;27;20473;-79
2023/10/23 13:03:53;;;;;;;25.40;22.80;;;;;;;;;;5142914;27;20069;-80
2023/10/23 13:06:19;;;;;;;25.50;22.80;;;;;;;;;;5177592;27;20039;-79
2023/10/23 13:08:47;;;;;;;24.75;22.27;;;;;;;;;;5142608;27;20070;-79
2023/10/23 13:11:13;;;;;;;25.90;23.17;;;;;;;;;;5159823;27;20358;-79
2023/10/23 13:13:39;;;;;;;25.48;22.88;;;;;;;;;;5143110;27;20042;-79
2023/10/23 13:16:05;;;;;;;26.58;23.73;;;;;;;;;;5178144;27;20042;-79
2023/10/23 13:18:31;;;;;;;26.75;23.95;;;;;;;;;;5125175;27;20041;-79
2023/10/23 13:20:57;;;;;;;26.83;23.92;;;;;;;;;;5159727;27;20093;-79
2023/10/23 13:23:24;;;;;;;27.75;24.85;;;;;;;;;;5143209;27;20042;-79
2023/10/23 13:25:51;;;;;;;28.13;25.20;;;;;;;;;;5159430;27;20049;-79
2023/10/23 13:28:17;;;;;;;31.77;26.05;;;;;;;;;;5159521;27;20038;-78
2023/10/23 13:30:43;;;;;;;28.35;25.35;;;;;;;;;;5159851;27;20073;-79
2023/10/23 13:33:09;;;;;;;34.00;26.33;;;;;;;;;;5159529;27;20038;-79
2023/10/23 13:35:36;;;;;;;32.10;25.50;;;;;;;;;;5159833;27;20046;-79
2023/10/23 13:38:03;;;;;;;33.10;27.08;;;;;;;;;;5159442;27;20042;-79
2023/10/23 13:40:30;;;;;;;35.85;27.75;;;;;;;;;;5159605;27;20064;-79
2023/10/23 13:42:57;;;;;;;33.13;28.23;;;;;;;;;;5177663;27;20093;-79
2023/10/23 13:45:23;;;;;;;33.13;29.65;;;;;;;;;;5178177;27;20091;-79
2023/10/23 13:47:49;;;;;;;33.15;29.55;;;;;;;;;;5159115;27;20042;-79
2023/10/23 13:50:15;;;;;;;30.17;26.95;;;;;;;;;;5159176;27;20469;-78
2023/10/23 13:52:41;;;;;;;34.80;31.15;;;;;;;;;;5178015;27;20057;-79
2023/10/23 13:55:07;;;;;;;37.55;33.65;;;;;;;;;;5158994;27;20054;-79
2023/10/23 13:57:33;;;;;;;38.17;34.17;;;;;;;;;;5158975;27;20120;-79
2023/10/23 13:59:59;;;;;;;42.90;38.33;;;;;;;;;;5141687;27;20078;-79
2023/10/23 14:02:26;;;;;;;43.28;38.72;;;;;;;;;;5178102;27;20093;-79
2023/10/23 14:04:52;;;;;;;45.60;38.65;;;;;;;;;;5158652;27;20038;-79
2023/10/23 14:07:18;;;;;;;48.58;43.33;;;;;;;;;;5141397;27;20047;-79
2023/10/23 14:09:44;;;;;;;53.63;47.90;;;;;;;;;;5158656;27;20133;-79
2023/10/23 14:12:11;;;;;;;52.80;47.10;;;;;;;;;;5141518;27;20366;-79
2023/10/23 14:14:37;;;;;;;51.28;45.65;;;;;;;;;;5176997;27;20477;-78
2023/10/23 14:17:04;;;;;;;51.67;46.15;;;;;;;;;;5159505;27;20057;-78
2023/10/23 14:19:30;;;;;;;50.88;45.40;;;;;;;;;;5158619;27;20496;-79
2023/10/23 14:21:57;;;;;;;44.55;39.90;;;;;;;;;;5158988;27;20049;-79